Time;durP1;ratioP1;P1;durP2;ratioP2;P2;SDS_P1;SDS_P2;PMS_P1;PMS_P2;Temp;Humidity;BMP_temperature;BMP_pressure;BME280_temperature;BME280_humidity;BME280_pressure;Samples;Min_cycle;Max_cycle;Signal;HPM_P1;HPM_P2
2022/07/24 00:01:54;;;;;;;34.92;20.70;;;;;;;21.30;62.79;100489.32;1723631;82;21667;-48
2022/07/24 00:04:21;;;;;;;23.42;17.48;;;;;;;21.29;62.42;100485.01;1719307;82;21114;-48
2022/07/24 00:06:49;;;;;;;25.85;17.30;;;;;;;21.25;62.37;100485.91;1720300;82;22197;-48
2022/07/24 00:09:16;;;;;;;25.02;17.52;;;;;;;21.24;62.45;100475.39;1718509;82;21093;-48
2022/07/24 00:11:42;;;;;;;23.77;17.65;;;;;;;21.20;62.27;100476.28;1717816;82;21141;-47
2022/07/24 00:14:10;;;;;;;24.87;17.45;;;;;;;21.12;62.42;100479.08;1715192;81;21042;-48
2022/07/24 00:16:37;;;;;;;26.45;18.60;;;;;;;21.05;62.55;100480.34;1735116;81;21108;-48
2022/07/24 00:19:05;;;;;;;22.62;16.62;;;;;;;20.99;62.74;100475.73;1716249;82;21047;-48
2022/07/24 00:21:32;;;;;;;23.32;15.95;;;;;;;20.96;62.84;100470.76;1717066;81;21078;-48
2022/07/24 00:23:59;;;;;;;28.45;16.02;;;;;;;20.99;62.87;100470.91;1709527;83;21133;-47
2022/07/24 00:26:26;;;;;;;22.25;15.40;;;;;;;20.97;62.87;100467.89;1710224;83;21118;-48
2022/07/24 00:28:52;;;;;;;21.07;15.65;;;;;;;20.95;62.88;100463.77;1711273;83;21602;-48
2022/07/24 00:31:19;;;;;;;22.07;16.20;;;;;;;20.91;63.01;100460.65;1710117;83;21158;-47
2022/07/24 00:33:48;;;;;;;24.37;16.17;;;;;;;20.86;63.20;100459.02;1708437;83;21091;-48
2022/07/24 00:36:16;;;;;;;26.25;15.90;;;;;;;20.82;63.34;100459.09;1706341;83;21011;-50
2022/07/24 00:38:43;;;;;;;26.20;16.45;;;;;;;20.77;63.46;100453.48;1710920;83;21141;-48
2022/07/24 00:41:09;;;;;;;23.77;15.18;;;;;;;20.70;63.72;100458.75;1708622;83;21577;-47
2022/07/24 00:44:00;;;;;;;24.35;13.75;;;;;;;20.72;63.71;100459.38;1713077;83;21201;-47
2022/07/24 00:46:27;;;;;;;18.60;14.55;;;;;;;20.77;63.67;100462.32;1711933;83;21074;-47
2022/07/24 00:48:54;;;;;;;21.27;15.15;;;;;;;20.79;63.76;100471.49;1711279;83;21079;-48
2022/07/24 00:51:21;;;;;;;21.45;16.25;;;;;;;20.75;64.19;100471.56;1710908;83;21083;-48
2022/07/24 00:53:47;;;;;;;23.57;15.70;;;;;;;20.70;64.45;100478.80;1705136;83;21082;-48
2022/07/24 00:56:14;;;;;;;22.82;16.40;;;;;;;20.66;64.66;100480.69;1707953;83;21148;-48
2022/07/24 00:58:40;;;;;;;21.82;17.70;;;;;;;20.63;64.69;100483.25;1710665;83;21048;-48
2022/07/24 01:01:07;;;;;;;21.15;15.83;;;;;;;20.58;64.74;100486.44;1708074;83;21193;-48
2022/07/24 01:03:33;;;;;;;21.93;15.48;;;;;;;20.52;64.80;100483.16;1699883;83;21113;-48
2022/07/24 01:06:00;;;;;;;22.40;15.55;;;;;;;20.55;64.78;100474.77;1706958;83;21083;-48
2022/07/24 01:08:26;;;;;;;21.33;15.10;;;;;;;20.54;64.67;100469.12;1711003;83;21288;-47
2022/07/24 01:10:53;;;;;;;17.80;14.25;;;;;;;20.50;64.67;100474.50;1712524;83;21360;-48
2022/07/24 01:13:20;;;;;;;15.68;13.00;;;;;;;20.44;64.69;100473.90;1709555;83;21051;-48
2022/07/24 01:15:47;;;;;;;19.70;14.10;;;;;;;20.40;64.62;100473.45;1708316;83;21648;-47
2022/07/24 01:18:13;;;;;;;20.75;13.22;;;;;;;20.36;64.56;100468.16;1747285;81;21627;-48
2022/07/24 01:20:43;;;;;;;21.65;14.05;;;;;;;20.27;64.58;100475.94;1743601;81;22040;-48
2022/07/24 01:23:09;;;;;;;17.95;12.82;;;;;;;20.18;64.75;100471.71;1686744;81;21562;-48
2022/07/24 01:25:37;;;;;;;15.53;12.45;;;;;;;20.16;64.89;100474.56;1715413;81;21347;-47
2022/07/24 01:28:04;;;;;;;16.55;12.10;;;;;;;20.19;64.93;100478.20;1727802;81;21078;-48
2022/07/24 01:30:31;;;;;;;19.80;13.35;;;;;;;20.25;64.97;100483.31;1724915;81;21573;-48
2022/07/24 01:32:59;;;;;;;18.23;13.38;;;;;;;20.27;64.96;100485.28;1713947;81;22076;-47
2022/07/24 01:35:25;;;;;;;16.62;12.43;;;;;;;20.28;64.87;100482.13;1725063;81;21057;-48
2022/07/24 01:37:52;;;;;;;17.95;13.03;;;;;;;20.25;64.90;100481.97;1727129;80;21147;-48
2022/07/24 01:40:20;;;;;;;19.00;12.68;;;;;;;20.22;64.98;100479.66;1736452;81;21055;-48
2022/07/24 01:42:47;;;;;;;21.55;13.40;;;;;;;20.17;65.08;100477.56;1732349;81;21066;-47
2022/07/24 01:45:14;;;;;;;17.32;11.60;;;;;;;20.13;65.18;100475.44;1728589;81;21142;-47
2022/07/24 01:47:43;;;;;;;20.37;11.97;;;;;;;20.10;65.25;100475.28;1723902;81;21059;-47
2022/07/24 01:50:11;;;;;;;14.03;11.78;;;;;;;20.11;65.27;100474.28;1715205;81;21162;-48
2022/07/24 01:52:38;;;;;;;27.32;11.90;;;;;;;20.10;65.25;100471.28;1751250;80;21118;-48
2022/07/24 01:55:05;;;;;;;17.15;10.90;;;;;;;20.10;65.30;100476.63;1741259;81;21114;-47
2022/07/24 01:57:32;;;;;;;15.38;10.25;;;;;;;20.06;65.21;100490.55;1718788;81;21157;-48
2022/07/24 02:00:00;;;;;;;15.90;11.10;;;;;;;20.04;65.11;100478.70;1731990;82;21637;-48
2022/07/24 02:02:27;;;;;;;16.97;11.38;;;;;;;20.00;65.06;100480.06;1719138;82;21023;-48
2022/07/24 02:04:53;;;;;;;17.42;12.28;;;;;;;19.97;65.20;100480.42;1719220;82;21054;-48
2022/07/24 02:07:20;;;;;;;18.17;10.98;;;;;;;19.97;65.76;100479.09;1720438;82;21154;-48
2022/07/24 02:09:47;;;;;;;17.42;11.25;;;;;;;20.03;66.25;100482.38;1719520;82;21136;-47
2022/07/24 02:12:13;;;;;;;16.55;11.35;;;;;;;20.11;66.44;100481.48;1718615;82;21098;-48
2022/07/24 02:14:40;;;;;;;15.98;10.55;;;;;;;20.17;66.54;100479.39;1721037;82;21022;-48
2022/07/24 02:17:06;;;;;;;20.20;12.10;;;;;;;20.17;66.25;100472.23;1722031;82;21070;-48
2022/07/24 02:19:34;;;;;;;14.33;10.88;;;;;;;20.15;65.69;100475.56;1729761;82;21522;-48
2022/07/24 02:22:01;;;;;;;16.35;11.33;;;;;;;20.13;65.40;100474.11;1725463;82;21140;-48
2022/07/24 02:24:28;;;;;;;17.12;11.38;;;;;;;20.09;65.37;100473.64;1714728;82;21054;-48
2022/07/24 02:26:55;;;;;;;20.48;12.05;;;;;;;20.06;65.34;100476.67;1704610;83;21068;-47
2022/07/24 02:29:23;;;;;;;22.17;13.15;;;;;;;20.06;65.52;100474.00;1704751;82;21819;-48
2022/07/24 02:31:49;;;;;;;28.02;12.50;;;;;;;20.09;65.66;100483.00;1736663;81;21088;-49
2022/07/24 02:34:16;;;;;;;23.55;12.23;;;;;;;20.12;65.75;100492.47;1730424;80;21179;-49
2022/07/24 02:36:42;;;;;;;24.30;12.78;;;;;;;20.14;65.90;100481.94;1737734;81;21102;-48
2022/07/24 02:39:10;;;;;;;17.15;10.65;;;;;;;20.15;65.90;100489.44;1716215;81;21110;-48
2022/07/24 02:41:38;;;;;;;15.75;11.43;;;;;;;20.13;65.76;100489.61;1742934;81;21055;-48
2022/07/24 02:44:05;;;;;;;16.20;11.70;;;;;;;20.13;65.47;100484.79;1734227;81;21441;-48
2022/07/24 02:46:31;;;;;;;16.62;10.55;;;;;;;20.15;65.38;100489.44;1713113;81;21105;-48
2022/07/24 02:48:58;;;;;;;15.32;9.85;;;;;;;20.15;65.28;100495.59;1710929;81;21086;-48
2022/07/24 02:51:24;;;;;;;14.65;9.38;;;;;;;20.12;65.26;100489.28;1706391;83;21132;-49
2022/07/24 02:53:51;;;;;;;18.30;10.80;;;;;;;20.18;65.28;100486.41;1716799;81;21058;-48
2022/07/24 02:56:17;;;;;;;13.80;9.43;;;;;;;20.24;65.18;100489.69;1718803;82;21074;-48
2022/07/24 02:58:44;;;;;;;13.75;8.63;;;;;;;20.25;65.26;100486.50;1714729;81;21244;-48
2022/07/24 03:01:12;;;;;;;13.38;9.15;;;;;;;20.25;65.12;100487.84;1714428;81;21109;-48
2022/07/24 03:03:39;;;;;;;12.93;9.30;;;;;;;20.26;65.13;100487.66;1716487;81;21169;-48
2022/07/24 03:06:05;;;;;;;12.20;8.55;;;;;;;20.26;65.20;100486.31;1716689;81;21073;-59
2022/07/24 03:08:33;;;;;;;11.45;8.33;;;;;;;20.31;65.26;100478.58;1720255;83;21004;-60
2022/07/24 03:11:00;;;;;;;11.55;7.78;;;;;;;20.40;65.34;100473.97;1722323;81;21120;-59
2022/07/24 03:13:26;;;;;;;13.20;8.35;;;;;;;20.50;65.52;100479.03;1717754;82;21114;-59
2022/07/24 03:15:54;;;;;;;13.30;8.48;;;;;;;20.56;65.60;100475.59;1716586;81;21062;-59
2022/07/24 03:18:21;;;;;;;11.75;7.45;;;;;;;20.58;65.78;100468.24;1723582;81;21128;-59
2022/07/24 03:20:49;;;;;;;10.40;7.25;;;;;;;20.63;65.66;100463.68;1744512;81;21099;-59
2022/07/24 03:23:15;;;;;;;9.23;6.15;;;;;;;20.66;65.38;100467.33;1730156;81;21128;-59
2022/07/24 03:25:42;;;;;;;10.58;7.50;;;;;;;20.66;65.04;100465.98;1726595;81;21087;-59
2022/07/24 03:28:09;;;;;;;11.78;6.97;;;;;;;20.64;64.85;100471.52;1730847;81;21098;-60
2022/07/24 03:30:37;;;;;;;10.75;6.50;;;;;;;20.69;64.69;100474.98;1745441;81;21054;-59
2022/07/24 03:33:03;;;;;;;10.38;6.30;;;;;;;20.74;64.65;100476.58;1747659;81;21113;-59
2022/07/24 03:35:30;;;;;;;8.73;5.87;;;;;;;20.83;64.44;100474.13;1724869;81;21151;-59
2022/07/24 03:37:57;;;;;;;9.48;5.85;;;;;;;20.92;64.53;100472.98;1723274;82;21065;-60
2022/07/24 03:40:24;;;;;;;9.50;6.55;;;;;;;20.97;64.56;100465.22;1735569;81;21081;-60
2022/07/24 03:42:50;;;;;;;10.10;6.15;;;;;;;21.04;64.40;100468.48;1754115;81;21042;-59
2022/07/24 03:45:17;;;;;;;8.75;6.08;;;;;;;21.06;64.22;100461.09;1756630;81;21006;-59
2022/07/24 03:47:44;;;;;;;10.38;5.45;;;;;;;21.09;63.90;100458.05;1749760;81;21156;-59
2022/07/24 03:50:10;;;;;;;9.53;5.65;;;;;;;21.13;63.86;100464.17;1746249;80;21042;-59
2022/07/24 03:52:37;;;;;;;9.10;5.25;;;;;;;21.18;63.58;100456.89;1729819;82;21086;-59
2022/07/24 03:55:05;;;;;;;8.10;5.40;;;;;;;21.24;63.56;100457.47;1724783;81;21108;-59
2022/07/24 03:57:32;;;;;;;9.88;5.03;;;;;;;21.38;63.14;100454.92;1708817;83;21082;-59
2022/07/24 03:59:58;;;;;;;6.80;5.10;;;;;;;21.46;62.64;100451.59;1704819;83;22062;-59
2022/07/24 04:02:25;;;;;;;7.55;4.75;;;;;;;21.52;62.37;100457.56;1694327;83;21509;-59
2022/07/24 04:04:52;;;;;;;10.18;5.30;;;;;;;21.60;62.12;100467.31;1711111;83;22250;-59
2022/07/24 04:07:20;;;;;;;8.78;4.90;;;;;;;21.67;61.48;100464.66;1709689;83;21082;-59
2022/07/24 04:09:46;;;;;;;7.42;4.45;;;;;;;21.73;60.71;100468.44;1712753;83;21058;-59
2022/07/24 04:12:13;;;;;;;8.80;4.78;;;;;;;21.77;59.92;100466.52;1713647;83;21208;-59
2022/07/24 04:14:40;;;;;;;8.75;5.15;;;;;;;21.81;59.70;100461.59;1708137;83;21035;-59
2022/07/24 04:17:07;;;;;;;6.37;4.78;;;;;;;21.85;59.53;100460.99;1782298;78;21018;-59
2022/07/24 04:19:33;;;;;;;11.28;5.00;;;;;;;21.89;59.27;100460.12;1788426;78;21117;-59
2022/07/24 04:22:01;;;;;;;8.68;4.87;;;;;;;21.94;59.31;100467.05;1791822;78;21619;-59
2022/07/24 04:24:28;;;;;;;6.65;4.70;;;;;;;21.97;59.39;100463.98;1786030;78;21036;-59
2022/07/24 04:26:55;;;;;;;7.00;4.62;;;;;;;22.02;58.86;100464.72;1778959;78;21549;-59
2022/07/24 04:29:21;;;;;;;7.17;4.72;;;;;;;22.12;59.16;100459.02;1784012;78;22258;-59
2022/07/24 04:31:47;;;;;;;8.73;4.87;;;;;;;22.20;58.72;100454.84;1731354;81;21094;-59
2022/07/24 04:34:14;;;;;;;8.15;5.22;;;;;;;22.27;58.38;100454.36;1744611;81;21076;-59
2022/07/24 04:36:41;;;;;;;7.25;5.08;;;;;;;22.34;58.46;100456.61;1742607;81;21459;-60
2022/07/24 04:39:08;;;;;;;10.45;5.03;;;;;;;22.41;57.93;100456.12;1743225;81;21135;-60
2022/07/24 04:41:35;;;;;;;7.75;5.42;;;;;;;22.45;57.96;100453.87;1718653;81;21088;-60
2022/07/24 04:44:02;;;;;;;7.67;5.05;;;;;;;22.49;57.95;100461.00;1743441;80;21061;-60
2022/07/24 04:46:29;;;;;;;7.50;4.87;;;;;;;22.54;58.02;100453.17;1765952;80;21070;-59
2022/07/24 04:48:55;;;;;;;8.45;5.37;;;;;;;22.61;58.24;100447.32;1758770;80;21079;-60
2022/07/24 04:51:22;;;;;;;6.95;5.10;;;;;;;22.69;58.61;100446.33;1753510;80;21086;-60
2022/07/24 04:53:48;;;;;;;8.28;5.42;;;;;;;22.75;58.57;100447.69;1745858;80;21470;-60
2022/07/24 04:56:16;;;;;;;8.18;5.28;;;;;;;22.83;58.48;100445.36;1731247;81;21066;-59
2022/07/24 04:58:42;;;;;;;8.68;5.40;;;;;;;22.94;58.05;100442.06;1740315;81;21054;-59
2022/07/24 05:01:11;;;;;;;6.65;4.75;;;;;;;23.05;58.18;100443.34;1697331;81;21023;-60
2022/07/24 05:03:38;;;;;;;9.13;5.35;;;;;;;23.14;58.78;100442.66;1715771;81;21080;-60
2022/07/24 05:06:06;;;;;;;8.30;5.97;;;;;;;23.18;58.58;100437.18;1745355;81;21047;-60
2022/07/24 05:08:33;;;;;;;7.95;5.78;;;;;;;23.20;57.92;100431.11;1728095;83;21064;-60
2022/07/24 05:10:59;;;;;;;10.40;5.10;;;;;;;23.23;57.38;100433.36;1711167;82;21744;-60
2022/07/24 05:13:26;;;;;;;8.78;5.92;;;;;;;23.27;57.20;100433.80;1711277;82;21147;-60
2022/07/24 05:15:55;;;;;;;9.13;5.97;;;;;;;23.32;57.96;100431.33;1714955;82;21628;-60
2022/07/24 05:18:21;;;;;;;9.65;5.87;;;;;;;23.34;58.15;100433.28;1725689;82;21077;-60
2022/07/24 05:20:47;;;;;;;10.43;5.78;;;;;;;23.38;58.71;100434.52;1717266;82;21058;-59
2022/07/24 05:23:14;;;;;;;11.65;5.87;;;;;;;23.45;58.71;100431.34;1721918;82;21059;-60
2022/07/24 05:25:41;;;;;;;9.68;5.78;;;;;;;23.50;58.25;100431.54;1717471;82;21152;-59
2022/07/24 05:28:08;;;;;;;9.43;5.35;;;;;;;23.54;58.52;100432.77;1720552;82;21086;-60
2022/07/24 05:30:34;;;;;;;8.13;4.95;;;;;;;23.58;58.47;100425.64;1718223;82;21063;-60
2022/07/24 05:33:01;;;;;;;9.40;5.70;;;;;;;23.64;58.28;100424.30;1719909;82;21168;-59
2022/07/24 05:35:27;;;;;;;11.08;5.60;;;;;;;23.73;58.10;100418.19;1720770;82;21053;-60
2022/07/24 05:37:55;;;;;;;9.13;6.25;;;;;;;23.79;57.91;100409.30;1716868;82;21120;-59
2022/07/24 05:40:22;;;;;;;10.80;5.25;;;;;;;23.86;57.65;100406.63;1720816;82;21075;-59
2022/07/24 05:42:48;;;;;;;6.30;3.85;;;;;;;23.91;57.89;100400.92;1718280;82;21015;-56
2022/07/24 05:45:15;;;;;;;6.47;2.87;;;;;;;23.98;56.35;100404.94;1723015;82;21075;-58
2022/07/24 05:47:42;;;;;;;5.53;2.62;;;;;;;24.06;55.21;100400.69;1716747;82;21672;-57
2022/07/24 05:50:11;;;;;;;4.97;2.87;;;;;;;24.11;54.53;100394.68;1720978;82;21106;-58
2022/07/24 05:52:39;;;;;;;4.40;2.60;;;;;;;24.19;53.54;100392.26;1712886;82;21072;-59
2022/07/24 05:55:07;;;;;;;4.58;2.70;;;;;;;24.25;52.88;100388.20;1748852;80;21138;-58
2022/07/24 05:57:34;;;;;;;6.70;3.20;;;;;;;24.31;52.48;100383.86;1753157;80;21099;-59
2022/07/24 06:00:01;;;;;;;5.42;3.08;;;;;;;24.38;52.01;100377.92;1754940;80;21162;-57
2022/07/24 06:02:27;;;;;;;5.83;2.95;;;;;;;24.47;51.82;100390.59;1780000;80;21112;-59
2022/07/24 06:04:55;;;;;;;6.60;3.55;;;;;;;24.55;51.66;100388.22;1721808;81;21073;-58
2022/07/24 06:07:21;;;;;;;5.05;2.98;;;;;;;24.64;52.19;100388.26;1715988;82;21122;-59
2022/07/24 06:09:51;;;;;;;8.50;3.60;;;;;;;24.73;52.11;100388.83;1723344;81;21068;-58
2022/07/24 06:12:17;;;;;;;5.12;2.75;;;;;;;24.82;51.98;100387.54;1731537;81;21121;-58
2022/07/24 06:14:45;;;;;;;6.62;2.87;;;;;;;24.91;51.21;100398.34;1732175;81;21091;-58
2022/07/24 06:17:13;;;;;;;5.92;3.10;;;;;;;25.02;50.21;100404.91;1713640;82;21047;-58
2022/07/24 06:19:41;;;;;;;7.20;3.12;;;;;;;25.12;48.92;100399.05;1704220;81;21062;-59
2022/07/24 06:22:07;;;;;;;4.45;2.83;;;;;;;25.21;49.07;100403.10;1703192;82;21012;-59
2022/07/24 06:24:34;;;;;;;5.70;2.80;;;;;;;25.30;48.75;100406.37;1716764;81;21549;-59
2022/07/24 06:27:03;;;;;;;4.20;2.47;;;;;;;25.38;48.21;100402.87;1723295;83;21058;-60
2022/07/24 06:29:30;;;;;;;5.50;2.75;;;;;;;25.46;48.64;100402.32;1706177;81;21106;-59
2022/07/24 06:31:57;;;;;;;4.30;2.55;;;;;;;25.54;48.66;100400.70;1717588;81;21101;-58
2022/07/24 06:34:24;;;;;;;4.60;2.80;;;;;;;25.60;48.74;100401.13;1710801;82;21088;-59
2022/07/24 06:36:51;;;;;;;6.30;3.00;;;;;;;25.68;48.90;100396.00;1714291;82;21129;-58
2022/07/24 06:39:18;;;;;;;5.37;3.17;;;;;;;25.75;49.05;100399.44;1717495;82;21108;-59
2022/07/24 06:41:45;;;;;;;5.10;2.98;;;;;;;25.83;48.59;100396.45;1714519;82;21078;-59
2022/07/24 06:44:13;;;;;;;5.92;3.22;;;;;;;25.89;48.84;100397.42;1727114;82;21489;-60
2022/07/24 06:46:40;;;;;;;5.15;3.08;;;;;;;25.92;48.53;100391.59;1729108;81;21470;-58
2022/07/24 06:49:06;;;;;;;4.92;3.08;;;;;;;25.96;48.99;100392.84;1725499;81;21099;-59
2022/07/24 06:51:33;;;;;;;4.95;2.70;;;;;;;26.01;47.84;100387.59;1737184;81;21442;-59
2022/07/24 06:53:59;;;;;;;7.87;2.87;;;;;;;26.06;47.26;100390.97;1721736;81;21062;-59
2022/07/24 06:56:26;;;;;;;4.85;2.52;;;;;;;26.11;46.15;100396.52;1730665;81;21124;-59
2022/07/24 06:58:52;;;;;;;4.00;2.30;;;;;;;26.16;45.87;100393.96;1732483;81;21529;-59
2022/07/24 07:01:19;;;;;;;5.87;2.60;;;;;;;26.21;45.16;100394.61;1728961;81;21095;-58
2022/07/24 07:03:45;;;;;;;5.78;2.90;;;;;;;26.28;45.61;100389.98;1730632;81;21185;-59
2022/07/24 07:06:13;;;;;;;4.33;2.45;;;;;;;26.37;45.15;100383.21;1720577;81;21105;-59
2022/07/24 07:08:39;;;;;;;5.30;2.60;;;;;;;26.45;45.03;100386.94;1730298;81;21078;-58
2022/07/24 07:11:06;;;;;;;4.67;2.02;;;;;;;26.54;45.20;100370.44;1729449;81;21143;-59
2022/07/24 07:27:11;;;;;;;5.53;2.20;;;;;;;27.68;41.21;100339.77;1889787;75;22621;-57
2022/07/24 07:29:38;;;;;;;3.95;1.85;;;;;;;27.74;40.56;100346.40;1837317;76;21528;-56
2022/07/24 07:32:05;;;;;;;4.05;2.22;;;;;;;27.77;40.33;100331.06;1827531;77;21136;-58
2022/07/24 07:34:32;;;;;;;6.22;2.27;;;;;;;27.84;41.00;100336.34;1845916;76;20988;-57
2022/07/24 07:36:59;;;;;;;4.50;2.15;;;;;;;27.90;40.63;100334.01;1850332;77;21022;-57
2022/07/24 07:39:25;;;;;;;4.53;2.27;;;;;;;27.89;40.79;100332.38;1845529;76;20970;-57
2022/07/24 07:41:52;;;;;;;5.58;2.50;;;;;;;27.90;41.17;100332.66;1846845;77;20915;-57
2022/07/24 07:44:19;;;;;;;3.80;1.92;;;;;;;27.94;40.72;100335.73;1830672;76;21122;-58
2022/07/24 07:46:45;;;;;;;3.90;1.87;;;;;;;27.96;40.20;100329.04;1825534;77;21028;-58
2022/07/24 07:49:12;;;;;;;3.60;2.10;;;;;;;28.00;39.29;100332.62;1830178;76;21053;-58
2022/07/24 07:51:39;;;;;;;4.25;2.50;;;;;;;28.01;38.59;100329.68;1832759;76;21038;-58
2022/07/24 07:54:05;;;;;;;6.83;2.65;;;;;;;28.02;38.40;100327.78;1834906;76;21109;-58
2022/07/24 07:56:32;;;;;;;3.90;2.10;;;;;;;28.04;38.64;100322.95;1835303;77;21174;-58
2022/07/24 07:59:00;;;;;;;3.83;2.40;;;;;;;28.07;38.25;100321.94;1837305;76;21042;-57
2022/07/24 08:01:26;;;;;;;4.45;2.45;;;;;;;28.14;38.11;100327.20;1834769;77;21029;-57
2022/07/24 08:03:53;;;;;;;4.50;2.67;;;;;;;28.17;38.50;100318.07;1833980;76;21017;-58
2022/07/24 08:06:21;;;;;;;4.70;2.17;;;;;;;28.24;38.57;100319.28;1833652;76;21029;-58
2022/07/24 08:08:48;;;;;;;5.08;2.42;;;;;;;28.26;38.22;100321.24;1846227;76;21101;-58
2022/07/24 08:11:14;;;;;;;3.77;2.10;;;;;;;28.30;37.99;100314.27;1839560;76;21041;-58
2022/07/24 08:13:41;;;;;;;4.58;2.42;;;;;;;28.35;38.17;100311.66;1835747;76;21046;-57
2022/07/24 08:16:08;;;;;;;4.62;2.50;;;;;;;28.45;38.10;100312.92;1827797;77;21140;-57
2022/07/24 08:18:34;;;;;;;3.77;2.27;;;;;;;28.52;38.60;100315.75;1834530;76;21070;-58
2022/07/24 08:21:01;;;;;;;3.98;2.37;;;;;;;28.60;37.58;100308.34;1834871;77;21110;-58
2022/07/24 08:23:28;;;;;;;4.03;2.30;;;;;;;28.65;37.42;100288.94;1837975;76;21086;-58
2022/07/24 08:25:54;;;;;;;5.35;2.55;;;;;;;28.74;37.44;100300.17;1834675;77;21097;-58
2022/07/24 08:28:22;;;;;;;5.12;2.50;;;;;;;28.80;36.26;100298.36;1837738;76;21097;-58
2022/07/24 08:30:50;;;;;;;3.98;2.12;;;;;;;28.85;36.01;100290.32;1847550;76;21033;-58
2022/07/24 08:33:17;;;;;;;4.12;2.20;;;;;;;28.89;35.98;100291.48;1854178;76;21776;-58
2022/07/24 08:35:43;;;;;;;3.98;2.10;;;;;;;28.94;35.35;100289.40;1838392;77;21128;-58
2022/07/24 08:38:10;;;;;;;3.62;2.00;;;;;;;29.00;35.57;100291.94;1844392;77;21461;-58
2022/07/24 08:40:38;;;;;;;4.10;2.17;;;;;;;29.08;35.93;100287.97;1834882;76;21058;-58
2022/07/24 08:43:08;;;;;;;4.25;2.42;;;;;;;29.17;36.32;100281.11;1838812;76;21053;-58
2022/07/24 08:45:37;;;;;;;4.37;1.77;;;;;;;29.27;37.47;100284.50;1791782;77;21173;-60
2022/07/24 08:48:05;;;;;;;4.10;2.05;;;;;;;29.37;34.85;100279.73;1799829;77;22219;-59
2022/07/24 08:50:34;;;;;;;3.90;1.92;;;;;;;29.48;33.35;100279.36;1776457;78;21533;-58
2022/07/24 08:53:00;;;;;;;4.87;2.45;;;;;;;29.57;33.69;100280.55;1810593;77;21008;-58
2022/07/24 08:55:29;;;;;;;4.55;2.33;;;;;;;29.62;34.04;100279.25;1766082;79;21070;-59
2022/07/24 08:57:57;;;;;;;4.35;2.17;;;;;;;29.65;34.08;100278.75;1772058;79;21363;-58
2022/07/24 09:00:25;;;;;;;4.58;2.00;;;;;;;29.67;34.15;100278.50;1771340;79;21078;-59
2022/07/24 09:02:51;;;;;;;4.40;2.02;;;;;;;29.68;33.76;100279.61;1767243;80;21560;-58
2022/07/24 09:05:18;;;;;;;5.15;2.33;;;;;;;29.71;33.92;100279.11;1773864;79;21546;-58
2022/07/24 09:07:44;;;;;;;4.92;2.42;;;;;;;29.73;33.82;100268.83;1783833;79;21054;-59
2022/07/24 09:10:15;;;;;;;4.22;2.20;;;;;;;29.76;34.25;100268.87;1771309;79;21990;-58
2022/07/24 09:12:45;;;;;;;4.00;2.27;;;;;;;29.81;34.65;100271.67;1781122;79;21062;-60
2022/07/24 09:15:19;;;;;;;4.35;2.05;;;;;;;29.86;33.54;100262.23;1782064;79;21117;-59
2022/07/24 09:17:54;;;;;;;;;;;;;;;29.88;33.34;100264.70;1782125;79;21125;-59
2022/07/24 09:20:22;;;;;;;3.52;1.82;;;;;;;29.91;33.37;100265.52;1772040;79;20215;-58
2022/07/24 09:22:49;;;;;;;5.10;2.62;;;;;;;29.97;33.42;100263.16;1761733;79;21184;-59
2022/07/24 09:25:23;;;;;;;3.80;1.87;;;;;;;30.04;32.96;100266.48;1762798;79;21082;-59
2022/07/24 09:27:52;;;;;;;4.28;1.95;;;;;;;30.04;32.85;100261.59;1763199;80;21316;-58
2022/07/24 09:30:31;;;;;;;4.25;2.17;;;;;;;30.08;33.21;100260.03;1755948;80;21010;-58
2022/07/24 09:33:04;;;;;;;4.78;2.12;;;;;;;30.16;32.64;100257.67;1763726;80;21067;-57
2022/07/24 09:35:44;;;;;;;4.22;1.92;;;;;;;30.26;32.57;100258.83;1760280;80;21870;-59
2022/07/24 09:38:16;;;;;;;4.53;2.00;;;;;;;30.33;31.58;100263.53;1757191;80;21023;-59
2022/07/24 09:40:46;;;;;;;4.62;2.17;;;;;;;30.36;31.95;100260.31;1772988;80;21098;-59
2022/07/24 09:43:32;;;;;;;4.35;2.12;;;;;;;30.40;31.99;100260.64;1754955;80;21549;-58
2022/07/24 09:46:08;;;;;;;4.33;2.00;;;;;;;30.44;32.50;100266.63;1749311;80;21104;-59
2022/07/24 09:48:42;;;;;;;4.15;2.08;;;;;;;30.48;32.56;100259.62;1757286;80;21183;-59
2022/07/24 09:51:14;;;;;;;5.17;2.27;;;;;;;30.56;32.18;100267.81;1773509;80;21058;-59
2022/07/24 09:53:42;;;;;;;3.47;2.02;;;;;;;30.60;32.36;100256.73;1764533;80;21113;-59
2022/07/24 09:56:11;;;;;;;4.45;1.92;;;;;;;30.68;32.11;100256.78;1751311;80;21100;-59
2022/07/24 09:58:46;;;;;;;6.75;2.30;;;;;;;30.78;32.45;100250.61;1757201;80;21026;-59
2022/07/24 10:01:16;;;;;;;3.98;1.92;;;;;;;30.83;31.74;100252.81;1762143;80;21349;-59
2022/07/24 10:03:44;;;;;;;3.75;2.05;;;;;;;30.88;31.95;100256.95;1751771;80;21340;-58
2022/07/24 10:06:14;;;;;;;4.33;2.30;;;;;;;30.92;31.71;100255.33;1763421;80;21003;-59
2022/07/24 10:08:42;;;;;;;5.50;2.30;;;;;;;31.02;31.88;100249.70;1767451;80;21132;-59
2022/07/24 10:11:10;;;;;;;4.22;2.30;;;;;;;31.11;31.32;100253.58;1764677;80;20976;-59
2022/07/24 10:13:37;;;;;;;5.30;2.58;;;;;;;31.13;31.84;100252.77;1762556;80;21145;-58
2022/07/24 10:16:22;;;;;;;4.58;2.00;;;;;;;31.13;32.09;100258.20;1763597;80;21480;-58
2022/07/24 10:18:58;;;;;;;4.85;2.30;;;;;;;31.14;31.90;100254.42;1753739;80;21090;-59
2022/07/24 10:21:34;;;;;;;5.08;2.47;;;;;;;31.17;32.18;100252.53;1761390;80;21137;-58
2022/07/24 10:24:18;;;;;;;5.75;2.50;;;;;;;31.16;31.73;100251.44;1762618;80;21066;-57
2022/07/24 10:26:58;;;;;;;6.92;2.27;;;;;;;31.10;32.13;100251.93;1774583;79;21142;-58
2022/07/24 10:29:21;;;;;;;;;;;;;;;31.03;31.81;100250.80;1776284;80;21058;-59
2022/07/24 10:31:54;;;;;;;5.10;2.12;;;;;;;30.99;31.74;100246.98;1761382;80;20267;-59
2022/07/24 10:34:46;;;;;;;4.75;1.95;;;;;;;30.97;31.89;100256.47;1763225;80;21093;-60
2022/07/24 10:37:43;;;;;;;6.33;2.27;;;;;;;30.92;32.05;100248.55;1757443;80;21518;-59
2022/07/24 10:40:41;;;;;;;4.45;2.02;;;;;;;30.90;31.62;100238.48;1758366;80;21160;-59
2022/07/24 10:43:17;;;;;;;3.95;2.20;;;;;;;30.91;31.77;100244.73;1759569;80;21008;-58
2022/07/24 10:45:46;;;;;;;;;;;;;;;30.88;31.34;100241.17;1758794;80;21036;-58
2022/07/24 10:48:26;;;;;;;4.40;2.30;;;;;;;30.86;31.36;100238.71;1755069;80;20174;-59
2022/07/24 10:51:13;;;;;;;5.55;2.58;;;;;;;30.83;31.71;100230.27;1753955;80;21112;-59
2022/07/24 10:53:46;;;;;;;4.08;2.30;;;;;;;30.85;31.88;100224.88;1752304;80;21293;-58
2022/07/24 10:56:41;;;;;;;4.08;2.42;;;;;;;30.93;31.85;100221.66;1757491;80;21050;-58
2022/07/24 10:59:13;;;;;;;4.78;2.62;;;;;;;31.05;32.24;100211.98;1755937;80;21103;-59
2022/07/24 11:01:50;;;;;;;4.10;2.40;;;;;;;31.16;31.85;100208.77;1758843;80;21587;-58
2022/07/24 11:04:24;;;;;;;4.37;2.52;;;;;;;31.21;32.30;100202.55;1761844;80;21168;-58
2022/07/24 11:07:12;;;;;;;9.55;2.47;;;;;;;31.34;32.46;100209.38;1761221;80;21197;-58
2022/07/24 11:10:07;;;;;;;4.87;2.50;;;;;;;31.48;32.39;100198.30;1755245;80;22285;-58
2022/07/24 11:12:32;;;;;;;4.83;2.30;;;;;;;31.66;32.04;100196.48;1753345;80;21062;-59
2022/07/24 11:17:41;;;;;;;6.35;2.58;;;;;;;31.95;31.51;100186.47;1703125;80;21509;-59
2022/07/24 11:20:14;;;;;;;6.33;2.77;;;;;;;32.05;31.59;100182.95;1760559;80;20982;-59
2022/07/24 11:22:51;;;;;;;4.67;2.60;;;;;;;32.14;31.81;100180.53;1758386;80;21080;-60
2022/07/24 11:25:24;;;;;;;4.42;2.40;;;;;;;32.17;31.90;100174.55;1746327;80;20925;-59
2022/07/24 11:27:58;;;;;;;4.10;2.27;;;;;;;32.14;32.42;100177.25;1775227;78;21658;-59
2022/07/24 11:30:29;;;;;;;5.47;2.80;;;;;;;32.14;32.06;100177.81;1783698;79;21120;-59
2022/07/24 11:32:58;;;;;;;4.95;2.50;;;;;;;32.17;32.50;100178.63;1803113;77;21569;-59
2022/07/24 11:35:35;;;;;;;5.47;2.60;;;;;;;32.18;33.34;100170.75;1805821;77;22174;-59
2022/07/24 11:38:06;;;;;;;6.25;2.40;;;;;;;32.21;32.35;100168.30;1789010;79;21081;-59
2022/07/24 11:40:34;;;;;;;3.98;2.40;;;;;;;32.18;31.84;100165.30;1780154;78;21089;-59
2022/07/24 11:43:05;;;;;;;4.72;2.50;;;;;;;32.15;32.86;100165.30;1777122;78;21068;-59
2022/07/24 11:45:33;;;;;;;5.17;2.40;;;;;;;32.12;32.60;100153.58;1795992;78;22181;-59